Time;durP1;ratioP1;P1;durP2;ratioP2;P2;SDS_P1;SDS_P2;PMS_P1;PMS_P2;Temp;Humidity;BMP_temperature;BMP_pressure;BME280_temperature;BME280_humidity;BME280_pressure;Samples;Min_cycle;Max_cycle;Signal;HPM_P1;HPM_P2
2021/09/28 00:00:17;;;;;;;15.15;14.00;;;13.90;86.80;;;;;;5009744;29;20061;-69
2021/09/28 00:02:48;;;;;;;15.77;14.38;;;13.90;86.30;;;;;;5013349;29;20069;-69
2021/09/28 00:05:21;;;;;;;16.25;14.95;;;14.00;87.10;;;;;;5011218;29;20059;-69
2021/09/28 00:07:53;;;;;;;15.75;14.48;;;14.00;87.30;;;;;;5012909;29;20125;-70
2021/09/28 00:10:25;;;;;;;15.38;14.18;;;14.00;87.30;;;;;;5007956;29;20140;-70
2021/09/28 00:12:57;;;;;;;15.57;14.27;;;14.00;87.30;;;;;;5012046;29;20453;-70
2021/09/28 00:15:29;;;;;;;16.13;14.65;;;14.00;87.10;;;;;;5011150;29;20125;-71
2021/09/28 00:18:01;;;;;;;15.50;14.10;;;14.00;88.20;;;;;;5011336;29;20132;-70
2021/09/28 00:20:37;;;;;;;16.08;14.63;;;14.00;87.50;;;;;;5011532;29;20085;-70
2021/09/28 00:23:14;;;;;;;15.35;14.15;;;14.10;87.30;;;;;;5010718;29;20559;-70
2021/09/28 00:25:49;;;;;;;15.93;14.45;;;14.10;86.70;;;;;;5011111;29;20894;-70
2021/09/28 00:28:21;;;;;;;16.08;14.38;;;14.10;87.00;;;;;;4994074;29;20042;-69
2021/09/28 00:30:52;;;;;;;15.70;14.43;;;14.10;87.70;;;;;;5010927;29;20124;-68
2021/09/28 00:33:26;;;;;;;15.80;14.50;;;14.20;87.90;;;;;;5010468;29;20178;-68
2021/09/28 00:36:00;;;;;;;14.85;13.70;;;14.10;88.20;;;;;;5011546;29;20056;-68
2021/09/28 00:38:32;;;;;;;15.40;14.10;;;14.10;88.70;;;;;;4993694;29;20428;-68
2021/09/28 00:41:04;;;;;;;15.80;14.55;;;14.10;89.40;;;;;;4993907;29;20045;-69
2021/09/28 00:43:53;;;;;;;15.85;14.30;;;14.00;90.40;;;;;;5010895;29;20058;-68
2021/09/28 00:46:25;;;;;;;15.52;14.30;;;14.00;89.60;;;;;;5009867;29;20995;-69
2021/09/28 00:49:02;;;;;;;15.50;14.30;;;14.10;89.20;;;;;;5011346;29;20037;-70
2021/09/28 00:51:34;;;;;;;15.82;14.60;;;14.10;89.50;;;;;;5009964;29;20085;-68
2021/09/28 00:54:06;;;;;;;16.05;14.85;;;14.10;90.40;;;;;;5010289;29;20073;-68
2021/09/28 00:56:39;;;;;;;15.80;14.60;;;14.00;90.80;;;;;;5009824;29;20045;-68
2021/09/28 00:59:12;;;;;;;16.40;15.10;;;14.10;91.00;;;;;;5008999;29;20053;-69
2021/09/28 01:01:45;;;;;;;17.05;15.50;;;14.00;91.00;;;;;;5010958;29;20153;-68
2021/09/28 01:04:17;;;;;;;16.25;14.63;;;14.00;91.00;;;;;;5009995;29;20057;-68
2021/09/28 01:06:49;;;;;;;16.50;14.82;;;13.90;90.60;;;;;;5010215;29;20528;-68
2021/09/28 01:09:21;;;;;;;16.77;15.38;;;14.00;90.40;;;;;;4993367;29;20045;-68
2021/09/28 01:11:53;;;;;;;15.85;14.55;;;14.00;90.60;;;;;;5009528;29;20042;-68
2021/09/28 01:14:25;;;;;;;16.50;15.18;;;14.00;91.00;;;;;;5011006;29;20050;-68
2021/09/28 01:16:57;;;;;;;15.75;14.55;;;14.00;90.20;;;;;;5009548;29;20105;-68
2021/09/28 01:19:29;;;;;;;16.65;15.13;;;14.00;89.60;;;;;;5010486;29;20477;-68
2021/09/28 01:22:01;;;;;;;16.83;15.20;;;14.10;90.60;;;;;;5010858;29;20046;-68
2021/09/28 01:24:34;;;;;;;16.85;15.35;;;14.00;90.30;;;;;;4994830;29;20054;-68
2021/09/28 01:27:06;;;;;;;16.30;15.10;;;14.00;89.90;;;;;;5010824;29;20098;-68
2021/09/28 01:29:38;;;;;;;16.83;15.43;;;14.00;90.80;;;;;;5010941;29;20065;-68
2021/09/28 01:32:10;;;;;;;17.55;16.15;;;14.10;90.40;;;;;;5009477;29;20073;-68
2021/09/28 01:34:42;;;;;;;16.73;15.25;;;14.10;90.30;;;;;;5012885;29;20049;-68
2021/09/28 01:37:14;;;;;;;16.42;15.00;;;14.10;90.20;;;;;;5009387;29;20149;-68
2021/09/28 01:39:46;;;;;;;17.55;16.05;;;14.10;90.30;;;;;;5010946;29;20096;-68
2021/09/28 01:42:18;;;;;;;17.08;15.73;;;14.10;90.30;;;;;;5010245;29;20516;-67
2021/09/28 01:44:50;;;;;;;16.50;15.18;;;14.20;90.50;;;;;;5010336;29;20720;-69
2021/09/28 01:47:22;;;;;;;16.05;14.75;;;14.10;90.40;;;;;;5011350;29;20053;-68
2021/09/28 01:49:54;;;;;;;16.77;15.45;;;14.10;90.80;;;;;;5013332;29;20811;-68
2021/09/28 01:52:26;;;;;;;17.05;15.45;;;14.20;90.10;;;;;;5014017;29;20148;-68
2021/09/28 01:54:57;;;;;;;17.15;15.52;;;14.20;90.30;;;;;;5014949;29;20049;-68
2021/09/28 01:57:29;;;;;;;17.17;15.45;;;14.20;91.20;;;;;;5015245;29;20496;-68
2021/09/28 02:00:03;;;;;;;17.00;15.50;;;14.10;91.40;;;;;;5013509;29;20530;-68
2021/09/28 02:02:42;;;;;;;17.60;16.00;;;14.00;91.50;;;;;;5013594;29;20560;-68
2021/09/28 02:05:14;;;;;;;17.13;15.68;;;14.00;91.30;;;;;;5016160;29;20065;-68
2021/09/28 02:07:46;;;;;;;16.98;15.68;;;14.00;91.90;;;;;;5013293;29;20046;-68
2021/09/28 02:10:18;;;;;;;16.80;15.50;;;14.00;91.20;;;;;;5014224;29;20069;-68
2021/09/28 02:12:50;;;;;;;17.10;15.80;;;14.00;91.20;;;;;;5012960;29;20169;-68
2021/09/28 02:15:25;;;;;;;16.92;15.43;;;14.10;90.90;;;;;;5002328;29;20840;-68
2021/09/28 02:17:59;;;;;;;16.63;15.23;;;14.10;91.30;;;;;;5014532;29;20052;-68
2021/09/28 02:20:31;;;;;;;17.05;15.75;;;14.10;91.20;;;;;;5012771;29;20124;-68
2021/09/28 02:23:03;;;;;;;16.75;15.35;;;14.10;91.40;;;;;;5013508;29;20073;-69
2021/09/28 02:25:36;;;;;;;16.75;15.35;;;14.10;91.70;;;;;;5013759;29;20612;-68
2021/09/28 02:28:08;;;;;;;16.80;15.50;;;14.10;91.60;;;;;;5013590;29;20117;-68
2021/09/28 02:30:40;;;;;;;17.83;16.23;;;14.10;91.60;;;;;;5013494;29;20129;-68
2021/09/28 02:33:11;;;;;;;16.70;15.40;;;14.10;91.20;;;;;;5013813;29;20042;-68
2021/09/28 02:35:43;;;;;;;16.67;15.18;;;14.00;92.10;;;;;;5012954;29;20054;-68
2021/09/28 02:38:15;;;;;;;16.80;15.50;;;14.10;91.40;;;;;;5012604;29;20055;-67
2021/09/28 02:40:48;;;;;;;16.95;15.60;;;14.10;91.70;;;;;;5010342;29;20485;-69
2021/09/28 02:43:19;;;;;;;16.50;15.13;;;14.10;91.50;;;;;;4995705;29;20164;-68
2021/09/28 02:45:51;;;;;;;16.55;15.15;;;14.10;91.60;;;;;;5011849;29;20077;-69
2021/09/28 02:48:23;;;;;;;16.75;15.48;;;14.20;91.50;;;;;;5018060;29;20064;-68
2021/09/28 02:50:55;;;;;;;17.17;15.82;;;14.10;91.30;;;;;;5011995;29;20038;-68
2021/09/28 02:53:27;;;;;;;17.13;15.63;;;14.20;91.30;;;;;;4996691;29;20407;-68
2021/09/28 02:55:59;;;;;;;17.10;15.70;;;14.10;91.60;;;;;;5011941;29;20073;-68
2021/09/28 02:58:31;;;;;;;16.65;15.45;;;14.10;91.70;;;;;;5011263;29;20470;-67
2021/09/28 03:01:03;;;;;;;17.00;15.70;;;14.10;91.30;;;;;;4995317;29;20059;-68
2021/09/28 03:03:36;;;;;;;17.02;15.73;;;14.10;92.00;;;;;;5013027;29;20128;-68
2021/09/28 03:06:07;;;;;;;16.63;15.32;;;14.10;91.80;;;;;;5011332;29;20045;-68
2021/09/28 03:08:39;;;;;;;17.40;15.73;;;14.10;92.30;;;;;;5011896;29;20064;-68
2021/09/28 03:11:11;;;;;;;17.55;15.90;;;14.10;92.20;;;;;;5011676;29;20049;-68
2021/09/28 03:13:43;;;;;;;16.90;15.50;;;14.10;92.40;;;;;;5012529;29;20069;-69
2021/09/28 03:16:15;;;;;;;16.67;15.30;;;14.10;92.10;;;;;;5011334;29;20132;-68
2021/09/28 03:18:47;;;;;;;17.05;15.65;;;14.10;91.60;;;;;;5011144;29;20056;-68
2021/09/28 03:21:20;;;;;;;17.00;15.70;;;14.20;92.20;;;;;;5012946;29;20053;-69
2021/09/28 03:23:52;;;;;;;17.50;16.10;;;14.10;92.40;;;;;;5010143;29;20050;-69
2021/09/28 03:26:25;;;;;;;16.60;15.23;;;14.10;92.20;;;;;;5013761;29;20065;-69
2021/09/28 03:28:57;;;;;;;16.73;15.43;;;14.20;91.70;;;;;;5011674;29;20876;-69
2021/09/28 03:31:29;;;;;;;16.27;14.88;;;14.20;91.10;;;;;;4995510;29;20045;-68
2021/09/28 03:34:04;;;;;;;16.30;15.00;;;14.20;91.40;;;;;;5012157;29;20050;-68
2021/09/28 03:36:35;;;;;;;16.40;14.95;;;14.30;91.50;;;;;;4994017;29;20049;-68
2021/09/28 03:39:07;;;;;;;16.10;14.80;;;14.30;91.30;;;;;;5010454;29;20078;-68
2021/09/28 03:41:39;;;;;;;16.33;14.77;;;14.40;90.90;;;;;;5011678;29;20495;-68
2021/09/28 03:44:11;;;;;;;16.40;15.00;;;14.30;90.60;;;;;;5013465;29;20415;-68
2021/09/28 03:46:43;;;;;;;17.33;15.93;;;14.40;91.30;;;;;;5012610;29;20226;-69
2021/09/28 03:49:15;;;;;;;16.60;15.30;;;14.40;91.60;;;;;;5012282;29;20929;-68
2021/09/28 03:51:47;;;;;;;16.85;15.55;;;14.40;91.20;;;;;;5012496;29;20045;-68
2021/09/28 03:54:19;;;;;;;16.50;15.07;;;14.40;92.30;;;;;;5010244;29;20124;-68
2021/09/28 03:56:51;;;;;;;16.65;15.35;;;14.40;91.50;;;;;;4993728;29;20097;-70
2021/09/28 03:59:22;;;;;;;18.02;16.35;;;14.40;91.00;;;;;;4995454;29;20049;-69
2021/09/28 04:01:54;;;;;;;17.55;16.15;;;14.40;91.40;;;;;;5010985;29;20050;-69
2021/09/28 04:04:27;;;;;;;16.48;15.13;;;14.40;91.80;;;;;;5012567;29;20397;-69
2021/09/28 04:06:59;;;;;;;16.15;14.85;;;14.40;91.20;;;;;;5010855;29;20153;-68
2021/09/28 04:09:34;;;;;;;17.77;16.27;;;14.40;91.40;;;;;;5012837;29;20179;-68
2021/09/28 04:12:07;;;;;;;18.38;16.88;;;14.40;91.60;;;;;;5010157;29;20045;-69
2021/09/28 04:14:40;;;;;;;16.65;15.25;;;14.40;92.00;;;;;;5011538;29;20485;-69
2021/09/28 04:17:12;;;;;;;17.83;16.33;;;14.40;92.20;;;;;;4995913;29;20516;-69
2021/09/28 04:19:43;;;;;;;17.77;16.27;;;14.40;91.30;;;;;;5010875;29;20526;-69
2021/09/28 04:22:15;;;;;;;17.42;15.93;;;14.40;92.30;;;;;;5011731;29;20055;-69
2021/09/28 04:24:49;;;;;;;16.95;15.65;;;14.30;92.20;;;;;;4993779;29;20138;-68
2021/09/28 04:27:21;;;;;;;18.00;15.80;;;14.30;93.10;;;;;;5010824;29;20491;-69
2021/09/28 04:29:53;;;;;;;17.42;15.93;;;14.20;93.20;;;;;;5009600;29;21165;-68
2021/09/28 04:32:25;;;;;;;17.13;15.73;;;14.20;93.70;;;;;;5000659;29;20045;-68
2021/09/28 04:34:56;;;;;;;17.50;16.10;;;14.20;93.50;;;;;;5012166;29;20049;-68
2021/09/28 04:37:28;;;;;;;17.45;15.98;;;14.20;93.60;;;;;;4985050;29;20053;-68
2021/09/28 04:40:05;;;;;;;16.88;15.57;;;14.20;93.60;;;;;;5010310;29;20053;-68
2021/09/28 04:42:37;;;;;;;18.50;16.83;;;14.20;93.90;;;;;;5009742;29;20470;-69
2021/09/28 04:45:10;;;;;;;17.88;16.58;;;14.20;94.10;;;;;;4994431;29;20124;-68
2021/09/28 04:47:42;;;;;;;18.58;17.05;;;14.20;94.30;;;;;;5012604;29;20127;-68
2021/09/28 04:50:13;;;;;;;17.48;16.08;;;14.20;94.40;;;;;;5011780;29;20427;-68
2021/09/28 04:52:45;;;;;;;18.65;17.13;;;14.20;94.60;;;;;;5011822;29;20050;-69
2021/09/28 04:55:17;;;;;;;18.33;16.80;;;14.20;94.50;;;;;;5011625;29;20447;-69
2021/09/28 04:57:49;;;;;;;17.92;16.33;;;14.30;93.70;;;;;;5010777;29;20056;-68
2021/09/28 05:00:21;;;;;;;18.20;16.65;;;14.30;93.50;;;;;;5009976;29;20118;-68
2021/09/28 05:02:54;;;;;;;18.17;16.77;;;14.30;93.20;;;;;;5012683;29;20201;-69
2021/09/28 05:05:26;;;;;;;18.27;16.63;;;14.30;92.90;;;;;;5010993;29;20054;-69
2021/09/28 05:07:58;;;;;;;19.00;17.35;;;14.40;92.70;;;;;;5011478;29;20042;-68
2021/09/28 05:10:30;;;;;;;18.40;16.90;;;14.40;92.90;;;;;;5010786;29;20524;-67
2021/09/28 05:13:05;;;;;;;18.80;17.23;;;14.40;93.60;;;;;;5011683;29;20049;-67
2021/09/28 05:15:37;;;;;;;15.70;14.57;;;14.40;93.40;;;;;;4999696;29;20610;-67
2021/09/28 05:18:09;;;;;;;15.10;13.82;;;14.40;93.10;;;;;;5010104;29;20060;-68
2021/09/28 05:20:41;;;;;;;15.40;14.30;;;14.40;92.70;;;;;;5009854;29;20138;-68
2021/09/28 05:23:12;;;;;;;14.95;13.95;;;14.30;92.40;;;;;;5011577;29;20133;-68
2021/09/28 05:25:44;;;;;;;14.90;13.88;;;14.40;92.10;;;;;;5012173;29;20148;-68
2021/09/28 05:28:16;;;;;;;13.75;12.75;;;14.40;91.90;;;;;;5011848;29;20077;-68
2021/09/28 05:30:49;;;;;;;14.10;13.00;;;14.30;92.00;;;;;;5014440;29;20033;-68
2021/09/28 05:33:22;;;;;;;14.25;13.25;;;14.30;92.00;;;;;;5013602;29;20194;-67
2021/09/28 05:35:55;;;;;;;14.75;13.65;;;14.30;92.10;;;;;;5014177;29;20156;-68
2021/09/28 05:38:29;;;;;;;14.27;13.27;;;14.30;92.10;;;;;;5011753;29;20196;-67
2021/09/28 05:41:06;;;;;;;13.55;12.57;;;14.30;91.90;;;;;;4982509;29;20160;-67
2021/09/28 05:43:39;;;;;;;13.75;12.85;;;14.30;92.20;;;;;;5013671;29;20124;-67
2021/09/28 05:46:11;;;;;;;13.80;12.80;;;14.20;92.00;;;;;;5013491;29;20073;-67
2021/09/28 05:48:43;;;;;;;13.85;12.88;;;14.30;92.20;;;;;;5014760;29;20057;-67
2021/09/28 05:51:17;;;;;;;13.82;12.82;;;14.20;92.10;;;;;;5012752;29;20073;-68
2021/09/28 05:53:50;;;;;;;13.70;12.80;;;14.20;92.40;;;;;;5013104;29;20041;-68
2021/09/28 05:56:22;;;;;;;14.30;13.30;;;14.20;92.40;;;;;;5013275;29;20077;-67
2021/09/28 05:58:54;;;;;;;14.10;13.10;;;14.20;92.70;;;;;;5012670;29;20064;-67
2021/09/28 06:01:26;;;;;;;14.13;13.13;;;14.20;92.70;;;;;;5012834;29;20049;-68
2021/09/28 06:03:58;;;;;;;14.43;13.43;;;14.10;92.80;;;;;;5010584;29;20084;-67
2021/09/28 06:06:31;;;;;;;13.60;12.60;;;14.10;92.90;;;;;;5002159;29;20539;-68
2021/09/28 06:09:03;;;;;;;14.00;12.90;;;14.20;93.00;;;;;;5012933;29;20190;-68
2021/09/28 06:11:36;;;;;;;12.77;11.88;;;14.10;92.80;;;;;;5013237;29;20046;-67
2021/09/28 06:14:08;;;;;;;13.82;12.82;;;14.10;93.10;;;;;;5014400;29;20048;-66
2021/09/28 06:16:40;;;;;;;13.48;12.48;;;14.20;93.30;;;;;;5013866;29;20164;-67
2021/09/28 06:19:11;;;;;;;13.13;12.23;;;14.10;93.20;;;;;;5011628;29;20083;-67
2021/09/28 06:21:45;;;;;;;13.65;12.75;;;14.10;93.30;;;;;;5000788;29;20555;-67
2021/09/28 06:24:18;;;;;;;13.27;12.27;;;14.10;93.20;;;;;;5012393;29;20187;-67
2021/09/28 06:26:50;;;;;;;12.88;11.98;;;14.10;93.30;;;;;;5009731;29;20060;-68
2021/09/28 06:29:22;;;;;;;13.00;12.10;;;14.10;93.30;;;;;;5013015;29;20128;-67
2021/09/28 06:31:54;;;;;;;13.50;12.60;;;14.10;93.20;;;;;;5011781;29;20054;-67
2021/09/28 06:34:26;;;;;;;13.20;12.30;;;14.10;93.20;;;;;;5012453;29;20056;-67
2021/09/28 06:36:58;;;;;;;13.05;12.15;;;14.20;93.20;;;;;;5011564;29;20136;-67
2021/09/28 06:39:30;;;;;;;13.85;12.88;;;14.20;92.90;;;;;;5012028;29;20053;-67
2021/09/28 06:42:02;;;;;;;13.18;12.27;;;14.20;93.00;;;;;;4996686;29;20141;-67
2021/09/28 06:44:34;;;;;;;13.32;12.30;;;14.20;92.80;;;;;;5013883;29;20049;-67
2021/09/28 06:47:07;;;;;;;13.45;12.55;;;14.20;92.80;;;;;;5013154;29;20160;-67
2021/09/28 06:49:40;;;;;;;13.25;12.35;;;14.30;93.60;;;;;;5012188;29;20038;-67
2021/09/28 06:52:12;;;;;;;13.10;12.20;;;14.30;92.70;;;;;;4982235;29;20053;-66
2021/09/28 06:54:44;;;;;;;13.68;12.68;;;14.30;93.00;;;;;;5014467;29;20045;-66
2021/09/28 06:57:17;;;;;;;13.73;12.73;;;14.30;92.70;;;;;;5013534;29;20058;-67
2021/09/28 06:59:48;;;;;;;14.20;13.10;;;14.30;93.00;;;;;;5012056;29;20132;-67
2021/09/28 07:02:20;;;;;;;14.00;13.00;;;14.40;92.70;;;;;;5012902;29;20124;-67
2021/09/28 07:04:52;;;;;;;13.35;12.35;;;14.40;92.60;;;;;;5012804;29;20499;-67
2021/09/28 07:07:25;;;;;;;13.82;12.82;;;14.40;92.40;;;;;;5011168;29;20136;-67
2021/09/28 07:09:57;;;;;;;13.20;12.20;;;14.40;92.70;;;;;;5013489;29;20152;-67
2021/09/28 07:12:29;;;;;;;13.57;12.57;;;14.40;92.40;;;;;;5012407;29;20429;-66
2021/09/28 07:15:02;;;;;;;13.32;12.32;;;14.40;92.60;;;;;;5010354;29;20145;-67
2021/09/28 07:17:34;;;;;;;13.70;12.70;;;14.40;92.60;;;;;;5012151;29;20053;-67
2021/09/28 07:20:06;;;;;;;12.90;12.00;;;14.40;92.50;;;;;;5012836;29;20775;-67
2021/09/28 07:22:38;;;;;;;13.60;12.60;;;14.40;92.40;;;;;;5011286;29;20653;-67
2021/09/28 07:25:10;;;;;;;12.82;11.93;;;14.40;92.40;;;;;;5012122;29;20060;-67
2021/09/28 07:28:00;;;;;;;13.80;12.80;;;14.50;92.50;;;;;;5011285;29;20102;-67
2021/09/28 07:30:33;;;;;;;13.48;12.48;;;14.50;92.30;;;;;;5013761;29;20525;-67
2021/09/28 07:33:05;;;;;;;12.90;12.00;;;14.50;92.40;;;;;;4996013;29;20053;-66
2021/09/28 07:35:37;;;;;;;12.98;12.07;;;14.50;92.30;;;;;;5013766;29;20153;-67
2021/09/28 07:38:10;;;;;;;13.23;12.30;;;14.50;92.40;;;;;;5010735;29;20046;-67
2021/09/28 07:40:45;;;;;;;13.57;12.57;;;14.60;92.40;;;;;;5010718;29;20075;-67
2021/09/28 07:43:18;;;;;;;13.63;12.68;;;14.60;93.20;;;;;;4995695;29;20464;-67
2021/09/28 07:45:50;;;;;;;13.35;12.35;;;14.60;92.30;;;;;;5010736;29;20757;-67
2021/09/28 07:48:22;;;;;;;12.88;11.98;;;14.70;92.40;;;;;;5009324;29;20576;-67
2021/09/28 07:50:54;;;;;;;13.27;12.32;;;14.70;92.20;;;;;;5011361;29;20096;-68
2021/09/28 07:53:29;;;;;;;13.27;12.27;;;14.80;92.30;;;;;;5010356;29;20061;-66
2021/09/28 07:56:02;;;;;;;13.30;12.40;;;14.80;92.10;;;;;;5010110;29;20049;-66
2021/09/28 07:58:34;;;;;;;13.02;12.13;;;14.90;92.20;;;;;;5011689;29;20057;-67
2021/09/28 08:01:06;;;;;;;13.65;12.65;;;15.10;92.10;;;;;;5010099;29;20591;-66
2021/09/28 08:03:38;;;;;;;13.20;12.30;;;15.20;91.90;;;;;;4993434;29;20054;-68
2021/09/28 08:06:10;;;;;;;13.55;12.60;;;15.30;91.70;;;;;;4983382;29;21094;-67
2021/09/28 08:08:42;;;;;;;13.60;12.70;;;15.30;92.10;;;;;;5012428;29;20242;-66
2021/09/28 08:11:14;;;;;;;13.40;12.50;;;15.40;91.50;;;;;;5011010;29;20150;-67
2021/09/28 08:13:46;;;;;;;13.77;12.77;;;15.50;91.30;;;;;;5010297;29;20053;-67
2021/09/28 08:16:18;;;;;;;13.48;12.48;;;15.50;91.10;;;;;;4994410;29;20432;-66
2021/09/28 08:18:50;;;;;;;13.15;12.15;;;15.60;91.00;;;;;;5009850;29;20500;-67
2021/09/28 08:21:22;;;;;;;13.05;12.15;;;15.60;91.10;;;;;;5010132;29;20060;-66
2021/09/28 08:23:54;;;;;;;13.90;12.90;;;15.70;90.90;;;;;;4985051;29;20791;-67
2021/09/28 08:29:11;;;;;;;14.38;13.38;;;15.80;90.70;;;;;;5008502;29;20530;-66
2021/09/28 08:31:49;;;;;;;14.50;13.50;;;15.80;90.40;;;;;;5011588;29;20092;-67
2021/09/28 08:34:21;;;;;;;14.50;13.50;;;15.80;89.80;;;;;;5010066;29;20049;-67
2021/09/28 08:36:53;;;;;;;13.90;12.90;;;15.90;90.40;;;;;;5010136;29;20056;-67
2021/09/28 08:39:25;;;;;;;14.30;13.30;;;15.90;90.20;;;;;;5008884;29;20045;-67
2021/09/28 08:41:58;;;;;;;14.13;13.13;;;16.00;90.00;;;;;;5009507;29;20046;-68
2021/09/28 08:44:30;;;;;;;14.50;13.50;;;16.20;90.00;;;;;;5011768;29;20482;-67
2021/09/28 08:47:02;;;;;;;14.70;13.70;;;16.30;89.70;;;;;;5009628;29;20077;-67
2021/09/28 08:49:35;;;;;;;14.85;13.85;;;16.40;90.10;;;;;;4992771;29;20073;-67
2021/09/28 08:52:07;;;;;;;15.00;13.90;;;16.50;89.10;;;;;;5009716;29;20102;-67
2021/09/28 08:54:39;;;;;;;14.95;13.95;;;16.60;89.30;;;;;;5011289;29;20041;-67
2021/09/28 08:57:11;;;;;;;15.00;14.00;;;16.70;88.70;;;;;;5008152;29;20547;-67
2021/09/28 08:59:49;;;;;;;15.10;14.07;;;16.80;88.60;;;;;;5009987;29;20109;-67
2021/09/28 09:02:21;;;;;;;14.88;13.88;;;17.10;87.20;;;;;;5010102;29;20157;-67
2021/09/28 09:05:03;;;;;;;15.73;14.63;;;17.10;86.40;;;;;;5008367;29;20078;-67
2021/09/28 09:07:35;;;;;;;15.65;14.55;;;17.20;86.80;;;;;;4991898;29;20049;-67
2021/09/28 09:10:09;;;;;;;15.93;14.82;;;17.40;85.90;;;;;;5009703;29;20079;-66
2021/09/28 09:12:41;;;;;;;16.27;15.13;;;17.50;85.60;;;;;;5010882;29;20156;-67
2021/09/28 09:15:27;;;;;;;15.60;14.50;;;17.50;84.80;;;;;;5008707;29;20077;-67
2021/09/28 09:18:01;;;;;;;15.57;14.57;;;17.60;86.20;;;;;;5010700;29;20108;-66
2021/09/28 09:20:43;;;;;;;16.00;14.85;;;17.60;84.30;;;;;;5009848;29;20125;-67
2021/09/28 09:23:22;;;;;;;16.35;15.25;;;17.60;85.90;;;;;;5009928;29;20046;-66
2021/09/28 09:26:00;;;;;;;16.38;15.07;;;17.80;85.60;;;;;;5008944;29;20198;-67
2021/09/28 09:28:34;;;;;;;16.75;15.45;;;18.20;85.30;;;;;;5009484;29;20129;-68
2021/09/28 09:31:09;;;;;;;16.73;15.52;;;18.30;84.50;;;;;;5009665;29;20466;-67
2021/09/28 09:33:44;;;;;;;16.50;15.40;;;18.40;84.30;;;;;;5008787;29;20109;-67
2021/09/28 09:36:19;;;;;;;17.27;16.08;;;18.60;82.90;;;;;;5009372;29;20140;-68
2021/09/28 09:38:53;;;;;;;17.48;16.20;;;18.80;83.10;;;;;;5009597;29;20159;-67
2021/09/28 09:41:38;;;;;;;16.83;15.65;;;18.80;80.90;;;;;;5007502;29;20413;-67
2021/09/28 09:44:13;;;;;;;16.80;15.57;;;19.00;80.30;;;;;;5009827;29;21013;-67
2021/09/28 09:46:45;;;;;;;16.83;15.63;;;19.00;81.20;;;;;;5009859;29;20054;-67
2021/09/28 09:49:24;;;;;;;16.38;15.18;;;19.20;81.30;;;;;;4995125;29;20087;-67
2021/09/28 09:52:03;;;;;;;16.33;15.23;;;19.10;80.20;;;;;;5009954;29;20080;-67
2021/09/28 09:54:40;;;;;;;16.90;15.70;;;19.00;79.70;;;;;;5011139;29;20154;-67
2021/09/28 09:57:13;;;;;;;16.85;15.75;;;19.10;79.80;;;;;;5008423;29;20088;-67
2021/09/28 09:59:46;;;;;;;17.02;15.82;;;19.10;78.70;;;;;;4992815;29;20397;-67
2021/09/28 10:02:18;;;;;;;16.88;15.73;;;19.30;79.30;;;;;;5009567;29;20520;-67
2021/09/28 10:04:51;;;;;;;16.40;15.30;;;19.40;78.40;;;;;;5010246;29;20042;-68
2021/09/28 10:07:23;;;;;;;16.65;15.50;;;19.40;79.50;;;;;;5008433;29;20136;-67
2021/09/28 10:09:58;;;;;;;16.70;15.60;;;19.30;79.50;;;;;;5014119;29;20041;-66
2021/09/28 10:12:36;;;;;;;17.02;15.82;;;19.30;79.70;;;;;;5011523;29;20529;-67
2021/09/28 10:15:16;;;;;;;17.60;16.40;;;19.20;79.40;;;;;;5013539;29;20393;-67
2021/09/28 10:17:48;;;;;;;16.77;15.68;;;19.20;79.60;;;;;;5012975;29;20056;-67
2021/09/28 10:20:20;;;;;;;17.15;15.85;;;19.10;79.10;;;;;;5012330;29;20456;-67
2021/09/28 10:22:55;;;;;;;17.02;15.82;;;19.00;78.20;;;;;;5011797;29;20127;-66
2021/09/28 10:25:36;;;;;;;16.77;15.57;;;18.80;79.50;;;;;;5013146;29;20063;-67
2021/09/28 10:28:08;;;;;;;16.77;15.68;;;18.70;78.60;;;;;;5016826;29;20057;-67
2021/09/28 10:30:42;;;;;;;17.05;15.85;;;18.60;80.70;;;;;;5012783;29;20503;-66
2021/09/28 10:33:29;;;;;;;17.23;16.10;;;18.60;80.70;;;;;;5013734;29;20072;-67
2021/09/28 10:36:22;;;;;;;17.58;16.13;;;18.60;80.80;;;;;;5011416;29;20676;-67
2021/09/28 10:39:01;;;;;;;17.35;16.15;;;18.60;81.50;;;;;;5013619;29;20559;-67
2021/09/28 10:41:38;;;;;;;17.05;15.88;;;18.70;81.60;;;;;;5013349;29;20169;-67
2021/09/28 10:44:40;;;;;;;17.58;16.27;;;18.60;81.30;;;;;;5012023;29;20511;-67
2021/09/28 10:47:50;;;;;;;16.67;15.57;;;18.70;81.60;;;;;;5010482;29;20831;-67
2021/09/28 10:50:32;;;;;;;17.80;16.55;;;18.70;81.60;;;;;;5013689;29;20504;-67
2021/09/28 10:53:08;;;;;;;17.45;16.25;;;18.60;80.90;;;;;;5011496;29;20551;-67
2021/09/28 10:55:54;;;;;;;17.85;16.55;;;18.60;81.20;;;;;;5013378;29;20580;-67
2021/09/28 10:58:27;;;;;;;17.17;15.98;;;18.50;80.50;;;;;;5014127;29;20073;-67
2021/09/28 11:00:59;;;;;;;17.40;16.08;;;18.50;81.60;;;;;;5011836;29;20098;-67
2021/09/28 11:03:50;;;;;;;17.45;16.15;;;18.50;81.70;;;;;;5012442;29;20056;-68
2021/09/28 11:06:49;;;;;;;17.23;16.02;;;18.50;81.60;;;;;;5011993;29;20398;-67
2021/09/28 11:09:25;;;;;;;17.02;15.75;;;18.40;82.50;;;;;;5007137;29;20136;-67
2021/09/28 11:11:58;;;;;;;17.70;16.48;;;18.40;80.70;;;;;;5011611;29;20050;-66
2021/09/28 11:14:37;;;;;;;17.45;16.13;;;18.40;81.20;;;;;;4996544;29;20073;-67
2021/09/28 11:17:15;;;;;;;17.92;16.65;;;18.30;81.90;;;;;;5010113;29;20106;-67
2021/09/28 11:19:47;;;;;;;17.67;16.38;;;18.30;81.70;;;;;;5013770;29;20548;-66
2021/09/28 11:22:22;;;;;;;17.83;16.60;;;18.30;82.20;;;;;;5010685;29;20144;-67
2021/09/28 11:24:54;;;;;;;17.50;16.20;;;18.30;81.80;;;;;;5013131;29;20149;-67
2021/09/28 11:27:26;;;;;;;18.58;17.17;;;18.20;81.80;;;;;;5011668;29;20100;-66
2021/09/28 11:29:58;;;;;;;17.50;16.30;;;18.20;81.70;;;;;;5012291;29;20050;-67
2021/09/28 11:32:32;;;;;;;18.33;17.02;;;18.20;82.40;;;;;;5011614;29;20057;-68
2021/09/28 11:35:04;;;;;;;18.58;17.17;;;18.20;81.90;;;;;;5012366;29;20065;-66
2021/09/28 11:37:36;;;;;;;18.10;16.80;;;18.10;81.20;;;;;;5008971;29;20061;-67
2021/09/28 11:40:11;;;;;;;18.35;17.05;;;18.20;82.20;;;;;;5008993;29;20053;-68
2021/09/28 11:42:43;;;;;;;18.38;17.08;;;18.10;80.60;;;;;;5008994;29;21705;-68
2021/09/28 11:45:27;;;;;;;18.33;17.02;;;18.10;80.70;;;;;;5008386;29;20136;-67
2021/09/28 11:48:00;;;;;;;18.08;16.80;;;18.00;80.60;;;;;;5011581;29;20088;-67
2021/09/28 11:50:32;;;;;;;17.70;16.48;;;18.00;80.60;;;;;;4996084;29;20054;-67
2021/09/28 11:53:08;;;;;;;18.05;16.73;;;18.00;80.90;;;;;;5011828;29;20049;-67
2021/09/28 11:55:41;;;;;;;18.10;16.80;;;17.90;81.10;;;;;;5011212;29;20732;-67
2021/09/28 11:58:13;;;;;;;17.67;16.38;;;17.80;81.30;;;;;;5011584;29;20968;-67
2021/09/28 12:00:45;;;;;;;18.23;16.92;;;17.70;81.80;;;;;;5011835;29;20081;-69
2021/09/28 12:03:23;;;;;;;18.55;17.23;;;17.70;81.80;;;;;;5010394;29;20052;-67
2021/09/28 12:06:07;;;;;;;18.65;17.33;;;17.70;81.60;;;;;;5007849;29;20102;-67
2021/09/28 12:08:39;;;;;;;18.42;17.13;;;17.70;81.40;;;;;;4995264;29;20129;-67
2021/09/28 12:11:11;;;;;;;18.25;16.85;;;17.70;81.60;;;;;;5011241;29;20054;-67
2021/09/28 12:13:48;;;;;;;18.58;17.27;;;17.70;81.80;;;;;;5008903;29;20061;-67
2021/09/28 12:16:22;;;;;;;18.13;16.70;;;17.70;81.90;;;;;;4993564;29;20541;-67
2021/09/28 12:19:06;;;;;;;18.30;17.00;;;17.70;82.00;;;;;;5010297;29;20050;-67
2021/09/28 12:21:44;;;;;;;19.00;17.60;;;17.60;81.60;;;;;;5007061;29;20052;-67
2021/09/28 12:24:18;;;;;;;18.55;17.05;;;17.60;82.00;;;;;;5010851;29;20076;-67
2021/09/28 12:26:50;;;;;;;18.40;17.02;;;17.60;82.40;;;;;;5008001;29;20232;-68
2021/09/28 12:29:22;;;;;;;18.63;17.23;;;17.60;81.80;;;;;;4991263;29;20077;-67
2021/09/28 12:31:54;;;;;;;18.27;16.98;;;17.50;82.10;;;;;;5010019;29;20272;-67
2021/09/28 12:34:26;;;;;;;17.95;16.65;;;17.50;83.70;;;;;;5010549;29;20420;-66
2021/09/28 12:37:02;;;;;;;18.80;17.40;;;17.50;82.40;;;;;;5009476;29;20421;-67
2021/09/28 12:39:34;;;;;;;18.73;17.27;;;17.50;83.40;;;;;;4993459;29;20038;-67
2021/09/28 12:42:09;;;;;;;17.85;16.55;;;17.60;83.10;;;;;;5010072;29;20144;-67
2021/09/28 12:44:41;;;;;;;18.95;17.55;;;17.60;83.50;;;;;;5012805;29;20132;-67
2021/09/28 12:47:23;;;;;;;18.30;17.00;;;17.60;83.10;;;;;;5008318;29;20084;-67
2021/09/28 12:49:56;;;;;;;18.73;17.33;;;17.60;83.00;;;;;;5010404;29;20050;-68
2021/09/28 12:52:28;;;;;;;18.60;17.17;;;17.60;82.90;;;;;;5007961;29;20164;-67
2021/09/28 12:55:00;;;;;;;17.92;16.63;;;17.60;82.50;;;;;;5011090;29;20128;-67
2021/09/28 12:57:32;;;;;;;18.20;16.90;;;17.60;83.20;;;;;;5008027;29;20038;-67
2021/09/28 13:00:05;;;;;;;19.38;17.83;;;17.50;83.40;;;;;;4994207;29;20102;-66
2021/09/28 13:02:39;;;;;;;18.52;17.13;;;17.50;82.70;;;;;;5010132;29;20895;-66